Time;durP1;ratioP1;P1;durP2;ratioP2;P2;SDS_P1;SDS_P2;PMS_P1;PMS_P2;Temp;Humidity;BMP_temperature;BMP_pressure;BME280_temperature;BME280_humidity;BME280_pressure;Samples;Min_cycle;Max_cycle;Signal;HPM_P1;HPM_P2
2022/09/22 00:00:14;;;;;;;;;6.00;5.00;;;;;16.91;42.55;101821.16;4972304;28;45357;-66
2022/09/22 00:02:40;;;;;;;;;6.67;4.67;;;;;16.80;42.78;101801.81;4970831;28;45404;-66
2022/09/22 00:05:06;;;;;;;;;9.00;5.67;;;;;16.82;42.89;101810.63;4972807;28;47839;-67
2022/09/22 00:07:31;;;;;;;;;5.33;5.33;;;;;16.84;42.72;101817.66;4975378;28;45435;-68
2022/09/22 00:09:57;;;;;;;;;3.33;3.33;;;;;16.76;42.77;101811.50;4975842;28;45472;-66
2022/09/22 00:12:22;;;;;;;;;5.00;4.67;;;;;16.66;43.11;101805.41;4974090;28;45465;-65
2022/09/22 00:14:48;;;;;;;;;5.33;5.00;;;;;16.55;43.13;101794.00;4970588;28;46850;-67
2022/09/22 00:17:13;;;;;;;;;5.33;5.00;;;;;16.57;42.98;101805.47;5002281;27;45535;-65
2022/09/22 00:19:39;;;;;;;;;4.67;4.67;;;;;16.61;43.08;101815.13;4971129;28;45512;-65
2022/09/22 00:22:05;;;;;;;;;3.67;3.67;;;;;16.58;43.34;101822.19;4971074;28;45676;-68
2022/09/22 00:24:31;;;;;;;;;3.33;3.33;;;;;16.49;43.24;101799.31;4971236;28;45470;-65
2022/09/22 00:26:58;;;;;;;;;3.00;3.00;;;;;16.63;42.64;101812.47;4975364;28;45520;-65
2022/09/22 00:29:28;;;;;;;;;3.33;3.00;;;;;16.57;43.12;101802.81;4973465;28;45744;-65
2022/09/22 00:31:54;;;;;;;;;4.00;4.00;;;;;16.51;43.30;101811.66;4975053;28;45388;-64
2022/09/22 00:34:25;;;;;;;;;6.00;4.00;;;;;16.54;43.21;101803.72;4971489;28;45739;-66
2022/09/22 00:36:51;;;;;;;;;3.00;2.33;;;;;16.52;43.14;101807.25;4970011;28;45961;-66
2022/09/22 00:39:18;;;;;;;;;3.00;3.00;;;;;16.50;42.65;101801.09;4990682;27;45565;-65
2022/09/22 00:41:46;;;;;;;;;3.00;3.00;;;;;16.53;43.11;101804.59;4975099;28;45476;-65
2022/09/22 00:44:35;;;;;;;;;3.00;3.00;;;;;16.57;43.19;101807.22;4961030;28;45414;-66
2022/09/22 00:47:06;;;;;;;;;3.00;3.00;;;;;16.57;43.17;101808.09;4973404;28;45611;-64
2022/09/22 00:50:09;;;;;;;;;3.00;3.00;;;;;16.48;43.25;101805.50;5047030;28;45460;-65
2022/09/22 00:52:42;;;;;;;;;5.67;4.00;;;;;16.45;42.89;101809.06;4971525;28;46551;-66
2022/09/22 00:55:20;;;;;;;;;5.00;3.00;;;;;16.44;42.99;101809.03;4970289;28;46116;-64
2022/09/22 00:57:47;;;;;;;;;6.33;3.00;;;;;16.42;42.91;101808.16;4969853;28;45388;-67
2022/09/22 01:00:13;;;;;;;;;5.00;5.00;;;;;16.25;43.59;101785.38;4969904;28;45799;-64
2022/09/22 01:02:39;;;;;;;;;3.67;3.67;;;;;16.41;43.24;101803.78;4973226;28;45484;-65
2022/09/22 01:05:05;;;;;;;;;4.00;4.00;;;;;16.25;43.47;101789.75;4974856;28;48272;-65
2022/09/22 01:07:31;;;;;;;;;4.00;4.00;;;;;16.33;43.40;101795.91;4972312;28;45310;-64
2022/09/22 01:09:58;;;;;;;;;4.33;4.00;;;;;16.43;43.75;101802.00;4965852;28;45572;-65
2022/09/22 01:12:26;;;;;;;;;4.00;4.00;;;;;16.37;43.92;101802.03;4972433;28;45693;-65
2022/09/22 01:15:36;;;;;;;;;5.67;5.00;;;;;16.37;44.35;101799.38;4973915;28;46370;-67
2022/09/22 01:18:26;;;;;;;;;4.67;4.67;;;;;16.37;44.39;101787.03;4961039;28;45373;-66
2022/09/22 01:21:15;;;;;;;;;4.00;4.00;;;;;16.45;44.10;101794.97;4974207;28;45409;-64
2022/09/22 01:24:07;;;;;;;;;5.00;4.00;;;;;16.49;44.38;101797.56;4975307;28;45462;-65
2022/09/22 01:27:04;;;;;;;;;5.67;5.67;;;;;16.44;44.74;101785.25;4961270;28;45535;-64
2022/09/22 01:29:29;;;;;;;;;4.33;4.33;;;;;16.43;44.70;101779.09;4977071;28;45468;-65
2022/09/22 01:32:05;;;;;;;;;5.00;5.00;;;;;16.20;45.04;101773.91;4974888;28;45446;-66
2022/09/22 01:34:34;;;;;;;;;5.33;3.00;;;;;16.29;45.30;101778.28;4988658;27;45676;-64
2022/09/22 01:37:11;;;;;;;;;5.67;5.67;;;;;16.16;45.78;101780.13;4972718;28;46249;-65
2022/09/22 01:39:44;;;;;;;;;4.00;4.00;;;;;16.08;45.73;101774.84;4973048;28;45394;-65
2022/09/22 01:42:22;;;;;;;;;5.67;5.67;;;;;16.23;45.26;101786.22;5024117;28;45373;-65
2022/09/22 01:44:55;;;;;;;;;4.67;4.33;;;;;16.24;45.11;101767.72;4964737;28;45571;-65
2022/09/22 01:47:26;;;;;;;;;5.00;5.00;;;;;16.28;45.29;101765.97;4973385;28;45759;-65
2022/09/22 01:49:56;;;;;;;;;5.00;5.00;;;;;16.28;45.15;101766.84;4974135;28;45595;-68
2022/09/22 01:52:26;;;;;;;;;4.33;4.00;;;;;16.31;45.07;101772.09;4973689;28;45451;-66
2022/09/22 01:55:01;;;;;;;;;4.33;4.33;;;;;16.44;45.10;101782.59;4972014;28;45351;-65
2022/09/22 01:57:37;;;;;;;;;6.00;5.00;;;;;16.44;44.95;101783.47;4975398;28;45722;-64
2022/09/22 02:00:06;;;;;;;;;3.33;3.00;;;;;16.45;45.08;101779.09;4976134;28;45660;-68
2022/09/22 02:02:53;;;;;;;;;4.00;4.00;;;;;16.40;44.97;101772.97;4969097;28;45396;-67
2022/09/22 02:05:32;;;;;;;;;5.33;4.33;;;;;16.39;45.14;101773.81;4985715;27;45477;-69
2022/09/22 02:08:00;;;;;;;;;3.33;3.00;;;;;16.44;45.02;101779.97;4971411;28;46587;-68
2022/09/22 02:10:32;;;;;;;;;4.00;4.00;;;;;16.47;45.21;101783.47;4970183;28;45653;-67
2022/09/22 02:13:00;;;;;;;;;6.33;4.67;;;;;16.41;45.07;101770.28;4997568;27;45485;-66
2022/09/22 02:18:17;;;;;;;;;6.33;6.33;;;;;16.50;45.14;101778.16;4972333;28;45740;-65
2022/09/22 02:20:44;;;;;;;;;5.00;5.00;;;;;16.51;45.18;101774.66;4975900;28;45512;-65
2022/09/22 02:23:09;;;;;;;;;3.00;3.00;;;;;16.51;45.20;101785.22;4956544;28;45735;-67
2022/09/22 02:25:37;;;;;;;;;5.00;5.00;;;;;16.49;45.16;101776.41;4961291;28;45572;-64
2022/09/22 02:28:06;;;;;;;;;5.33;3.67;;;;;16.39;45.38;101765.88;4969926;28;45559;-66
2022/09/22 02:30:32;;;;;;;;;7.33;6.00;;;;;16.27;46.17;101772.13;4975283;28;45353;-65
2022/09/22 02:33:15;;;;;;;;;5.00;5.00;;;;;16.24;45.73;101767.72;5022113;28;45505;-67
2022/09/22 02:36:05;;;;;;;;;5.00;4.33;;;;;16.21;46.38;101757.19;4957192;28;45557;-66
2022/09/22 02:38:43;;;;;;;;;5.67;5.33;;;;;16.26;45.87;101775.66;4971503;28;45859;-65
2022/09/22 02:41:36;;;;;;;;;6.33;5.00;;;;;16.06;46.46;101751.94;4970177;28;45520;-65
2022/09/22 02:44:10;;;;;;;;;8.33;8.33;;;;;15.98;46.74;101754.63;4958207;28;45415;-66
2022/09/22 02:46:36;;;;;;;;;5.33;5.33;;;;;16.01;47.05;101774.88;4968772;28;45460;-67
2022/09/22 02:49:07;;;;;;;;;6.67;5.33;;;;;15.95;46.88;101762.59;4961590;28;46460;-65
2022/09/22 02:51:33;;;;;;;;;5.33;4.33;;;;;15.97;46.78;101765.19;5006931;27;45401;-65
2022/09/22 02:54:00;;;;;;;;;5.00;5.00;;;;;15.98;47.03;101766.97;4976288;28;45424;-65
2022/09/22 02:56:26;;;;;;;;;5.67;5.00;;;;;15.87;47.36;101759.97;4964757;27;45461;-65
2022/09/22 02:58:52;;;;;;;;;4.67;4.00;;;;;15.88;48.00;101760.84;4961614;28;47819;-64
2022/09/22 03:01:18;;;;;;;;;6.33;4.00;;;;;15.89;47.31;101759.94;4961252;28;45404;-69
2022/09/22 03:03:44;;;;;;;;;8.33;5.33;;;;;15.78;47.39;101754.72;4971660;28;45455;-65
2022/09/22 03:06:09;;;;;;;;;5.00;5.00;;;;;15.82;47.14;101752.94;4972257;28;45549;-65
2022/09/22 03:08:35;;;;;;;;;4.67;4.00;;;;;15.89;47.33;101758.19;4970284;28;45511;-67
2022/09/22 03:11:00;;;;;;;;;5.00;4.33;;;;;15.89;47.31;101755.53;4987800;27;45373;-64
2022/09/22 03:13:26;;;;;;;;;5.67;5.00;;;;;15.91;47.25;101752.91;4962926;28;45367;-66
2022/09/22 03:15:51;;;;;;;;;6.00;3.33;;;;;15.87;47.14;101744.13;4974304;28;45770;-64
2022/09/22 03:18:17;;;;;;;;;4.00;4.00;;;;;15.83;47.21;101736.22;4971879;28;45532;-67
2022/09/22 03:20:42;;;;;;;;;4.00;4.00;;;;;15.79;47.60;101737.97;4970415;28;45494;-65
2022/09/22 03:23:08;;;;;;;;;5.33;5.33;;;;;15.81;47.51;101752.06;4974118;28;45470;-67
2022/09/22 03:25:34;;;;;;;;;4.00;4.00;;;;;15.82;47.73;101751.16;4971900;28;45691;-68
2022/09/22 03:27:59;;;;;;;;;4.00;4.00;;;;;15.78;47.50;101733.59;4973450;28;45770;-66
2022/09/22 03:30:25;;;;;;;;;5.00;4.67;;;;;15.81;47.04;101733.56;4975973;28;45387;-68
2022/09/22 03:32:51;;;;;;;;;8.00;5.33;;;;;15.90;47.15;101745.88;4976310;28;45344;-66
2022/09/22 03:35:16;;;;;;;;;5.33;4.00;;;;;15.83;47.86;101744.16;4976518;28;45366;-67
2022/09/22 03:37:42;;;;;;;;;7.00;5.00;;;;;15.79;47.70;101734.47;4975837;28;45557;-66
2022/09/22 03:40:08;;;;;;;;;5.67;4.33;;;;;15.80;47.08;101741.50;4971908;28;45393;-65
2022/09/22 03:42:34;;;;;;;;;7.33;6.00;;;;;15.73;47.84;101738.03;4972679;28;45422;-66
2022/09/22 03:45:00;;;;;;;;;6.00;4.00;;;;;15.75;47.79;101741.50;4975607;28;45620;-65
2022/09/22 03:47:26;;;;;;;;;6.00;4.67;;;;;15.76;47.57;101735.34;4975681;28;45801;-65
2022/09/22 03:49:52;;;;;;;;;5.67;5.00;;;;;15.71;47.97;101737.13;4975720;28;45284;-66
2022/09/22 03:52:17;;;;;;;;;5.67;5.00;;;;;15.71;47.82;101733.59;4975614;28;45341;-66
2022/09/22 03:54:43;;;;;;;;;3.67;3.67;;;;;15.78;47.78;101735.31;4975092;28;45540;-66
2022/09/22 03:57:08;;;;;;;;;7.67;5.00;;;;;15.80;47.22;101736.22;4971530;28;45928;-66
2022/09/22 03:59:34;;;;;;;;;3.33;3.33;;;;;15.74;47.82;101731.84;4970024;28;45496;-64
2022/09/22 04:02:01;;;;;;;;;8.00;5.33;;;;;15.66;48.16;101730.94;4971264;28;45338;-66
2022/09/22 04:04:27;;;;;;;;;5.00;5.00;;;;;15.62;48.48;101732.72;4971217;28;45717;-64
2022/09/22 04:06:53;;;;;;;;;5.00;5.00;;;;;15.50;48.04;101709.00;4971491;28;46659;-65
2022/09/22 04:09:19;;;;;;;;;4.00;4.00;;;;;15.62;48.34;101732.72;4969978;28;46013;-64
2022/09/22 04:11:45;;;;;;;;;4.00;4.00;;;;;15.32;48.23;101675.59;4968604;28;45434;-64
2022/09/22 04:14:10;;;;;;;;;9.00;7.33;;;;;15.48;48.83;101731.88;4952076;28;45301;-66
2022/09/22 04:16:36;;;;;;;;;5.50;5.50;;;;;15.38;48.75;101731.03;4951735;28;45869;-64
2022/09/22 04:19:03;;;;;;;;;5.33;5.33;;;;;15.42;48.01;101726.59;4956478;28;45805;-66
2022/09/22 04:21:30;;;;;;;;;10.00;6.00;;;;;15.34;47.71;101712.56;4958565;28;45367;-64
2022/09/22 04:23:56;;;;;;;;;6.00;6.00;;;;;15.36;47.40;101726.63;4960309;28;45263;-64
2022/09/22 04:26:22;;;;;;;;;6.00;5.33;;;;;15.28;47.69;101724.00;4985562;27;45468;-66
2022/09/22 04:28:47;;;;;;;;;5.00;4.00;;;;;15.21;47.52;101712.59;4964443;28;45394;-65
2022/09/22 04:31:14;;;;;;;;;4.33;4.33;;;;;15.24;47.54;101720.47;4983952;28;45387;-65
2022/09/22 04:33:41;;;;;;;;;5.33;3.00;;;;;15.25;47.26;101722.22;4964614;28;45539;-64
2022/09/22 04:36:07;;;;;;;;;3.00;3.00;;;;;15.19;47.12;101730.19;4960247;28;46964;-66
2022/09/22 04:38:33;;;;;;;;;3.00;3.00;;;;;15.19;47.07;101726.66;4965292;28;45468;-66
2022/09/22 04:41:00;;;;;;;;;4.67;4.67;;;;;15.18;46.99;101725.75;4970733;28;45253;-66
2022/09/22 04:43:26;;;;;;;;;3.67;3.67;;;;;15.12;47.11;101725.78;4974564;28;46122;-67
2022/09/22 04:45:52;;;;;;;;;4.67;3.00;;;;;15.06;47.37;101724.00;4998318;27;46285;-64
2022/09/22 04:48:17;;;;;;;;;4.00;4.00;;;;;15.08;47.26;101721.38;4979529;28;45984;-67
2022/09/22 04:50:44;;;;;;;;;4.00;4.00;;;;;15.10;46.82;101724.91;4971574;28;45355;-65
2022/09/22 04:53:11;;;;;;;;;3.00;3.00;;;;;15.03;47.47;101718.75;4970888;28;45760;-66
2022/09/22 04:55:37;;;;;;;;;3.67;3.67;;;;;15.08;47.21;101725.78;4985750;27;45605;-65
2022/09/22 04:58:03;;;;;;;;;5.00;4.00;;;;;15.04;47.15;101727.53;4970330;28;45645;-65
2022/09/22 05:00:29;;;;;;;;;4.00;4.00;;;;;14.96;47.13;101713.47;4973466;28;45324;-66
2022/09/22 05:02:55;;;;;;;;;7.00;4.00;;;;;15.00;47.51;101725.81;4969221;28;45537;-67
2022/09/22 05:05:23;;;;;;;;;6.00;3.50;;;;;14.97;47.99;101723.13;4958809;28;46291;-67
2022/09/22 05:07:52;;;;;;;;;7.00;4.75;;;;;14.96;47.85;101727.53;4968650;28;45821;-65
2022/09/22 05:10:19;;;;;;;;;4.00;4.00;;;;;14.93;47.75;101724.03;4969829;28;45436;-64
2022/09/22 05:12:45;;;;;;;;;5.25;4.00;;;;;14.96;47.61;101726.66;4969990;28;46156;-64
2022/09/22 05:15:12;;;;;;;;;4.33;4.00;;;;;14.95;48.12;101728.44;4972339;28;46126;-65
2022/09/22 05:17:50;;;;;;;;;4.50;4.00;;;;;14.87;47.97;101727.53;4966867;28;45688;-64
2022/09/22 05:20:17;;;;;;;;;6.25;5.75;;;;;14.84;47.98;101731.06;4971880;28;46116;-65
2022/09/22 05:22:43;;;;;;;;;5.00;5.00;;;;;14.78;48.14;101728.44;4970554;28;45768;-65
2022/09/22 05:25:11;;;;;;;;;6.75;4.75;;;;;14.67;48.06;101717.00;4969452;28;46046;-65
2022/09/22 05:27:53;;;;;;;;;7.75;5.00;;;;;14.77;48.16;101742.50;4961302;28;45746;-65
2022/09/22 05:30:21;;;;;;;;;7.50;5.25;;;;;14.73;47.85;101727.53;4970088;28;45532;-67
2022/09/22 05:32:48;;;;;;;;;5.00;5.00;;;;;14.66;47.92;101725.78;4988859;28;45523;-66
2022/09/22 05:35:15;;;;;;;;;3.75;3.50;;;;;14.69;48.59;101730.16;4969500;28;45531;-66
2022/09/22 05:37:46;;;;;;;;;4.75;4.25;;;;;14.76;48.62;101740.75;4985329;27;45350;-65
2022/09/22 05:40:13;;;;;;;;;7.75;5.50;;;;;14.71;48.21;101737.22;4985171;28;45429;-67
2022/09/22 05:42:46;;;;;;;;;6.50;4.50;;;;;14.72;47.94;101744.25;4969958;28;45531;-67
2022/09/22 05:45:13;;;;;;;;;8.33;5.00;;;;;14.69;48.61;101749.53;4968832;28;46096;-67
2022/09/22 05:47:39;;;;;;;;;5.00;5.00;;;;;14.81;48.03;101764.47;4957329;28;45681;-67
2022/09/22 05:50:06;;;;;;;;;4.50;4.50;;;;;14.78;48.40;101754.81;4971682;28;45571;-68
2022/09/22 05:52:33;;;;;;;;;6.75;6.75;;;;;14.80;49.06;101762.72;4973075;28;45647;-68
2022/09/22 05:54:58;;;;;;;;;7.25;6.25;;;;;14.75;48.59;101749.50;4972782;28;46299;-68
2022/09/22 05:57:26;;;;;;;;;5.00;5.00;;;;;14.81;48.57;101756.56;4972888;28;45418;-68
2022/09/22 05:59:52;;;;;;;;;5.00;4.00;;;;;14.86;48.54;101753.94;4973021;28;45487;-67
2022/09/22 06:02:18;;;;;;;;;4.33;4.00;;;;;14.91;48.72;101757.44;4974143;28;45496;-64
2022/09/22 06:04:43;;;;;;;;;6.25;6.25;;;;;14.81;48.48;101748.66;4974961;28;45460;-65
2022/09/22 06:07:09;;;;;;;;;7.00;7.00;;;;;14.95;48.66;101764.47;4987612;27;45444;-67
2022/09/22 06:09:35;;;;;;;;;6.00;5.00;;;;;15.00;48.46;101760.09;4971884;28;45606;-65
2022/09/22 06:12:01;;;;;;;;;7.50;6.25;;;;;15.11;47.95;101762.72;5004247;27;45546;-66
2022/09/22 06:14:26;;;;;;;;;6.00;5.00;;;;;15.12;48.27;101746.03;4973122;28;45547;-68
2022/09/22 06:16:52;;;;;;;;;9.75;4.25;;;;;15.23;48.16;101766.25;4974388;28;45414;-65
2022/09/22 06:19:18;;;;;;;;;6.00;5.00;;;;;15.38;48.01;101761.84;4975598;28;45362;-67
2022/09/22 06:21:44;;;;;;;;;6.00;5.00;;;;;15.44;47.93;101764.44;4973180;28;45326;-66
2022/09/22 06:24:11;;;;;;;;;6.25;5.25;;;;;15.58;48.20;101749.44;4976160;28;46087;-65
2022/09/22 06:26:37;;;;;;;;;5.25;5.25;;;;;15.96;47.27;101743.19;4971382;28;45448;-67
2022/09/22 06:29:02;;;;;;;;;7.00;6.50;;;;;16.09;46.30;101731.69;4973868;28;45472;-64
2022/09/22 06:31:28;;;;;;;;;5.33;5.33;;;;;16.07;46.69;101733.47;4976965;28;45920;-65
2022/09/22 06:33:53;;;;;;;;;9.00;8.00;;;;;15.97;46.69;101728.22;4976494;28;45605;-66
2022/09/22 06:36:26;;;;;;;;;8.50;6.00;;;;;16.02;46.88;101740.53;4974382;28;45362;-64
2022/09/22 06:38:54;;;;;;;;;7.75;6.50;;;;;15.98;46.91;101725.56;4973115;28;45386;-66
2022/09/22 06:41:20;;;;;;;;;11.00;7.25;;;;;15.98;46.49;101730.84;4972964;28;45476;-67
2022/09/22 06:43:47;;;;;;;;;7.00;6.75;;;;;16.08;46.55;101739.63;4970925;28;46199;-65
2022/09/22 06:46:13;;;;;;;;;8.00;8.00;;;;;16.22;46.28;101740.41;4957318;28;45477;-65
2022/09/22 06:48:39;;;;;;;;;10.33;6.33;;;;;16.36;46.05;101742.13;4972078;28;45358;-66
2022/09/22 06:51:04;;;;;;;;;6.33;6.33;;;;;16.44;46.22;101742.94;4972389;28;45611;-67
2022/09/22 06:53:30;;;;;;;;;8.50;8.00;;;;;16.38;46.17;101730.66;4975625;28;46148;-65
2022/09/22 06:56:00;;;;;;;;;11.50;11.25;;;;;16.46;45.88;101736.75;4974329;28;45654;-66
2022/09/22 06:58:27;;;;;;;;;11.67;9.33;;;;;16.42;45.92;101731.50;4971988;28;45524;-65
2022/09/22 07:00:53;;;;;;;;;9.00;8.00;;;;;16.38;46.10;101737.72;4972048;28;45495;-66
2022/09/22 07:03:21;;;;;;;;;10.33;9.67;;;;;16.46;46.26;101743.81;4971545;28;46504;-66
2022/09/22 07:06:00;;;;;;;;;12.25;9.75;;;;;16.51;45.62;101742.91;4972022;28;45356;-65
2022/09/22 07:08:27;;;;;;;;;6.67;5.00;;;;;16.58;45.54;101737.56;4975135;28;45519;-65
2022/09/22 07:11:06;;;;;;;;;8.33;8.00;;;;;16.64;45.66;101741.06;4972322;28;45782;-66
2022/09/22 07:13:37;;;;;;;;;9.00;9.00;;;;;16.71;45.37;101742.75;4988505;27;46592;-67
2022/09/22 07:16:08;;;;;;;;;11.67;10.00;;;;;16.75;44.88;101747.16;4974264;28;45326;-63
2022/09/22 07:18:39;;;;;;;;;11.00;11.00;;;;;16.83;45.30;101740.97;4974116;28;45459;-68
2022/09/22 07:21:07;;;;;;;;;12.67;9.00;;;;;16.85;45.21;101729.47;4970457;28;45738;-67
2022/09/22 07:23:34;;;;;;;;;9.67;8.00;;;;;17.12;45.96;101733.63;4971154;28;45496;-66
2022/09/22 07:26:05;;;;;;;;;15.33;13.00;;;;;17.31;44.46;101734.31;4971722;28;45567;-63
2022/09/22 07:28:33;;;;;;;;;13.33;10.33;;;;;17.32;43.17;101749.34;4971265;28;45398;-65
2022/09/22 07:31:08;;;;;;;;;9.67;8.33;;;;;17.29;43.03;101738.75;4962962;28;45491;-65
2022/09/22 07:33:36;;;;;;;;;5.67;5.67;;;;;17.30;42.67;101748.47;4965721;28;45608;-65
2022/09/22 07:36:08;;;;;;;;;10.33;7.00;;;;;17.22;42.66;101723.81;4967298;28;45730;-65
2022/09/22 07:38:36;;;;;;;;;7.33;5.33;;;;;17.42;42.17;101741.31;4972972;27;45552;-66
2022/09/22 07:41:07;;;;;;;;;8.33;5.00;;;;;17.48;42.00;101734.16;4951553;28;45589;-66
2022/09/22 07:43:33;;;;;;;;;8.00;6.00;;;;;17.54;41.57;101742.03;4951189;28;46239;-66
2022/09/22 07:45:59;;;;;;;;;5.33;4.33;;;;;17.48;41.34;101743.88;4952329;28;45493;-67
2022/09/22 07:48:35;;;;;;;;;7.67;5.00;;;;;17.37;41.45;101741.34;4986500;27;45523;-66
2022/09/22 07:51:05;;;;;;;;;10.00;7.00;;;;;17.17;41.61;101709.75;4973334;28;45699;-64
2022/09/22 07:53:31;;;;;;;;;6.33;6.00;;;;;17.42;41.80;101744.81;4987119;27;46883;-63
2022/09/22 07:56:05;;;;;;;;;3.33;3.00;;;;;17.52;41.49;101740.31;4971060;28;45484;-66
2022/09/22 07:58:31;;;;;;;;;8.33;7.00;;;;;17.48;41.47;101738.56;4974867;28;45453;-64
2022/09/22 08:00:57;;;;;;;;;5.00;5.00;;;;;17.37;41.52;101728.97;4971618;28;45542;-65
2022/09/22 08:03:23;;;;;;;;;6.00;5.00;;;;;17.49;41.56;101740.34;4971125;28;45507;-66
2022/09/22 08:05:51;;;;;;;;;8.33;6.33;;;;;17.46;41.63;101732.41;4969572;28;45449;-65
2022/09/22 08:08:18;;;;;;;;;9.33;6.33;;;;;17.51;41.68;101742.09;4969863;28;45873;-63
2022/09/22 08:10:43;;;;;;;;;6.33;5.00;;;;;17.65;41.99;101733.09;4970276;28;45989;-63
2022/09/22 08:13:09;;;;;;;;;6.00;6.00;;;;;17.67;42.11;101716.28;4969791;28;46454;-64
2022/09/22 08:15:35;;;;;;;;;5.00;5.00;;;;;17.88;41.60;101725.78;4990011;27;45380;-65
2022/09/22 08:18:02;;;;;;;;;15.33;10.33;;;;;17.88;42.64;101723.13;4975059;28;45416;-64
2022/09/22 08:20:28;;;;;;;;;6.00;6.00;;;;;18.07;41.51;101730.84;4975572;28;45479;-74
2022/09/22 08:22:56;;;;;;;;;9.67;5.33;;;;;18.20;43.13;101730.66;4971279;28;46118;-75
2022/09/22 08:25:24;;;;;;;;;6.00;5.00;;;;;18.50;42.66;101733.75;4985060;27;45359;-73
2022/09/22 08:27:50;;;;;;;;;5.67;5.00;;;;;18.66;42.08;101726.44;4973906;28;45337;-72
2022/09/22 08:30:18;;;;;;;;;5.67;3.33;;;;;18.88;41.44;101732.31;4977200;28;45381;-75
2022/09/22 08:32:47;;;;;;;;;5.33;4.33;;;;;18.93;39.89;101732.22;4975412;28;45594;-73
2022/09/22 08:35:13;;;;;;;;;4.00;4.00;;;;;18.88;40.06;101734.97;4973605;28;45764;-71
2022/09/22 08:37:40;;;;;;;;;4.67;4.67;;;;;18.89;40.34;101726.13;4975214;28;45371;-76
2022/09/22 08:40:15;;;;;;;;;3.00;3.00;;;;;19.12;40.50;101731.00;4976911;28;45435;-70
2022/09/22 08:42:44;;;;;;;;;5.00;4.00;;;;;19.14;39.59;101717.72;4988873;27;46758;-70
2022/09/22 08:45:25;;;;;;;;;4.00;4.00;;;;;19.32;39.95;101725.34;4962739;28;45869;-71
2022/09/22 08:53:47;;;;;;;;;3.33;3.33;;;;;19.62;39.22;101720.34;4971358;28;45481;-76
2022/09/22 08:56:35;;;;;;;;;5.33;4.33;;;;;19.77;38.67;101728.06;4986088;27;45444;-74
2022/09/22 08:59:18;;;;;;;;;5.00;4.00;;;;;19.82;39.55;101725.31;4971797;28;45513;-73
2022/09/22 09:02:09;;;;;;;;;5.33;4.00;;;;;19.90;38.88;101732.19;4972195;28;45561;-74
2022/09/22 09:05:02;;;;;;;;;4.33;3.67;;;;;19.97;38.53;101727.63;4974821;28;45373;-72
2022/09/22 09:07:44;;;;;;;;;3.00;3.00;;;;;20.07;38.22;101729.19;4974104;28;45318;-72
2022/09/22 09:10:34;;;;;;;;;4.00;2.00;;;;;20.03;38.04;101700.91;4972843;28;45401;-74
2022/09/22 09:13:15;;;;;;;;;3.00;3.00;;;;;20.28;37.95;101721.63;4975633;28;45422;-76
2022/09/22 09:16:19;;;;;;;;;2.33;2.00;;;;;20.31;37.35;101724.22;4971644;28;45681;-76
2022/09/22 09:19:09;;;;;;;;;3.33;3.00;;;;;20.26;37.68;101711.03;4955115;28;45378;-74
2022/09/22 09:21:42;;;;;;;;;3.67;3.67;;;;;20.26;36.32;101702.16;4954551;28;45696;-75
2022/09/22 09:24:36;;;;;;;;;4.00;4.00;;;;;20.37;36.94;101728.53;4961289;28;45358;-75
2022/09/22 09:27:14;;;;;;;;;4.00;4.00;;;;;20.32;37.55;101721.53;4972574;28;46882;-76
2022/09/22 09:30:17;;;;;;;;;5.00;5.00;;;;;20.32;36.63;101726.84;4963597;28;45470;-74
2022/09/22 09:32:55;;;;;;;;;6.67;4.33;;;;;20.20;37.02;101699.66;4960326;28;45169;-78
2022/09/22 09:35:51;;;;;;;;;5.00;5.00;;;;;20.17;37.01;101703.28;4957165;28;45316;-76
2022/09/22 09:38:25;;;;;;;;;9.33;7.67;;;;;20.16;36.74;101696.19;4960381;28;45477;-71
2022/09/22 09:41:00;;;;;;;;;7.33;6.00;;;;;20.24;36.63;101717.28;4958133;28;45373;-72
2022/09/22 09:43:27;;;;;;;;;9.00;8.33;;;;;20.22;36.50;101701.38;4966206;28;45298;-69
2022/09/22 09:46:10;;;;;;;;;10.33;9.67;;;;;20.31;36.41;101711.81;4955738;28;45296;-72
2022/09/22 09:48:45;;;;;;;;;8.67;6.33;;;;;20.39;36.69;101716.06;4965658;28;46752;-72
2022/09/22 09:51:13;;;;;;;;;10.33;7.67;;;;;20.30;37.02;101680.78;4978291;28;45288;-72
2022/09/22 09:53:48;;;;;;;;;9.33;9.33;;;;;20.50;36.14;101711.34;4978237;28;45507;-71
2022/09/22 09:56:23;;;;;;;;;10.33;7.00;;;;;20.51;36.32;101714.00;4961477;28;45514;-69
2022/09/22 10:01:51;;;;;;;;;7.00;7.00;;;;;20.65;36.42;101695.06;4957279;28;45375;-69
2022/09/22 10:04:36;;;;;;;;;6.33;5.00;;;;;20.89;36.22;101690.91;4957273;28;45532;-70
2022/09/22 10:07:39;;;;;;;;;7.67;7.00;;;;;20.85;35.12;101670.59;4957422;28;45469;-70
2022/09/22 10:10:36;;;;;;;;;8.33;8.00;;;;;20.92;34.57;101689.94;4969673;28;47036;-69
2022/09/22 10:13:05;;;;;;;;;5.67;4.33;;;;;21.02;34.90;101679.91;4958936;28;45450;-70
2022/09/22 10:15:36;;;;;;;;;6.00;5.67;;;;;21.06;33.75;101685.13;4957678;28;45469;-70
2022/09/22 10:18:22;;;;;;;;;7.00;4.67;;;;;21.09;33.75;101679.72;4956585;28;45338;-71
2022/09/22 10:21:05;;;;;;;;;3.00;3.00;;;;;21.03;33.51;101649.72;4965090;28;48013;-71
2022/09/22 10:23:32;;;;;;;;;4.00;4.00;;;;;21.30;32.90;101672.06;4974521;28;45401;-73
2022/09/22 10:26:17;;;;;;;;;3.00;3.00;;;;;21.43;33.50;101661.94;4973421;28;45356;-72
2022/09/22 10:28:49;;;;;;;;;2.00;2.00;;;;;21.64;32.11;101657.78;4967290;28;45701;-72
2022/09/22 10:31:35;;;;;;;;;3.33;3.33;;;;;21.53;32.23;101667.00;4968483;28;45554;-73
2022/09/22 10:34:01;;;;;;;;;3.67;3.33;;;;;21.56;31.54;101642.03;4975937;28;45539;-72
2022/09/22 10:36:29;;;;;;;;;3.00;3.00;;;;;21.52;31.53;101635.94;4976496;28;45381;-65
2022/09/22 10:38:55;;;;;;;;;3.00;3.00;;;;;21.98;31.38;101663.00;4971353;28;45517;-65
2022/09/22 10:41:27;;;;;;;;;3.67;3.67;;;;;22.20;30.86;101657.84;4972532;28;45428;-65
2022/09/22 10:44:20;;;;;;;;;4.00;2.00;;;;;22.35;29.83;101664.53;4972646;28;45673;-65
2022/09/22 10:47:26;;;;;;;;;3.00;3.00;;;;;22.47;30.12;101655.25;4969146;28;45329;-65
2022/09/22 10:49:54;;;;;;;;;3.00;3.00;;;;;22.66;30.44;101653.72;4975068;28;45379;-69
2022/09/22 10:52:34;;;;;;;;;3.00;2.33;;;;;22.95;30.11;101634.00;4972030;28;46160;-66
2022/09/22 10:55:25;;;;;;;;;2.67;2.00;;;;;23.36;29.68;101637.00;4972138;28;45582;-67
2022/09/22 10:58:09;;;;;;;;;2.33;2.33;;;;;23.86;29.31;101636.03;4988036;27;45491;-66
2022/09/22 11:00:38;;;;;;;;;2.33;2.00;;;;;24.30;27.81;101636.94;4987465;27;45448;-67
2022/09/22 11:03:35;;;;;;;;;3.00;3.00;;;;;25.81;25.92;101620.44;4971444;28;45599;-68
2022/09/22 11:12:30;;;;;;;;;1.00;1.00;;;;;32.51;19.73;101611.44;4960985;28;45493;-67
2022/09/22 11:15:21;;;;;;;;;4.50;2.00;;;;;33.03;18.22;101597.47;4976346;28;46681;-66
2022/09/22 11:17:56;;;;;;;;;2.75;2.00;;;;;33.12;17.87;101596.78;4973662;28;45521;-65
2022/09/22 11:20:24;;;;;;;;;3.00;1.00;;;;;33.36;17.37;101588.50;4972605;28;45566;-65
2022/09/22 11:23:08;;;;;;;;;2.00;1.00;;;;;33.43;17.97;101597.88;4987847;27;45569;-65
2022/09/22 11:25:49;;;;;;;;;2.00;2.00;;;;;33.72;17.18;101597.34;4971281;28;45576;-64
2022/09/22 11:28:24;;;;;;;;;2.00;2.00;;;;;33.35;16.60;101587.63;4971867;28;45462;-65
2022/09/22 11:30:51;;;;;;;;;1.00;1.00;;;;;33.81;17.13;101596.59;4972055;28;45432;-65
2022/09/22 11:33:40;;;;;;;;;1.00;1.00;;;;;34.34;16.44;101593.13;4972260;28;45408;-64
2022/09/22 11:36:15;;;;;;;;;3.00;1.75;;;;;34.62;16.28;101588.91;4959626;28;46081;-65
2022/09/22 11:38:51;;;;;;;;;1.00;1.00;;;;;34.77;16.39;101581.28;4971791;28;45905;-65
2022/09/22 11:41:29;;;;;;;;;3.25;1.25;;;;;35.20;16.51;101574.78;4975484;28;45420;-67
2022/09/22 11:44:25;;;;;;;;;2.50;2.00;;;;;34.52;15.93;101583.34;4989954;27;45471;-66
2022/09/22 11:46:58;;;;;;;;;4.00;2.00;;;;;34.02;16.92;101583.06;4963405;28;45739;-64
2022/09/22 11:49:41;;;;;;;;;4.00;1.80;;;;;34.84;16.23;101580.59;4971652;28;45476;-65
2022/09/22 11:52:42;;;;;;;;;2.00;2.00;;;;;35.84;16.20;101576.25;4972227;28;46356;-66
2022/09/22 11:55:32;;;;;;;;;1.00;1.00;;;;;36.65;15.06;101576.00;4969455;28;45520;-65
2022/09/22 11:58:04;;;;;;;;;2.20;1.00;;;;;36.86;14.82;101573.06;4971622;28;45670;-67
2022/09/22 12:00:39;;;;;;;;;2.20;2.20;;;;;36.88;14.66;101563.72;4973332;28;45480;-65
2022/09/22 12:03:13;;;;;;;;;4.20;4.20;;;;;36.30;15.21;101570.09;4970937;28;45385;-68